sensor_id;sensor_type;location;lat;lon;timestamp;pressure;altitude;pressure_sealevel;temperature;humidity
36062;BME280;22123;52.412;20.970;2023-03-14T00:01:11;98982.50;;;8.48;100.00
36062;BME280;22123;52.412;20.970;2023-03-14T00:03:38;98989.75;;;8.48;100.00
36062;BME280;22123;52.412;20.970;2023-03-14T00:06:05;99005.31;;;8.59;100.00
36062;BME280;22123;52.412;20.970;2023-03-14T00:08:31;99025.34;;;8.63;100.00
36062;BME280;22123;52.412;20.970;2023-03-14T00:10:57;99030.47;;;8.58;100.00
36062;BME280;22123;52.412;20.970;2023-03-14T00:13:24;98982.31;;;8.28;100.00
36062;BME280;22123;52.412;20.970;2023-03-14T00:15:50;99019.72;;;8.58;100.00
36062;BME280;22123;52.412;20.970;2023-03-14T00:18:16;98971.44;;;8.30;100.00
36062;BME280;22123;52.412;20.970;2023-03-14T00:20:41;98971.72;;;8.42;100.00
36062;BME280;22123;52.412;20.970;2023-03-14T00:23:07;98971.78;;;8.48;100.00
36062;BME280;22123;52.412;20.970;2023-03-14T00:25:34;98965.59;;;8.48;100.00
36062;BME280;22123;52.412;20.970;2023-03-14T00:28:00;98994.13;;;8.56;100.00
36062;BME280;22123;52.412;20.970;2023-03-14T00:30:26;98997.38;;;8.51;100.00
36062;BME280;22123;52.412;20.970;2023-03-14T00:32:52;98953.22;;;8.25;100.00
36062;BME280;22123;52.412;20.970;2023-03-14T00:35:18;98994.09;;;8.49;100.00
36062;BME280;22123;52.412;20.970;2023-03-14T00:37:44;98989.16;;;8.52;100.00
36062;BME280;22123;52.412;20.970;2023-03-14T00:40:10;98966.81;;;8.24;100.00
36062;BME280;22123;52.412;20.970;2023-03-14T00:42:36;98996.97;;;8.47;100.00
36062;BME280;22123;52.412;20.970;2023-03-14T00:45:02;98955.00;;;8.18;100.00
36062;BME280;22123;52.412;20.970;2023-03-14T00:47:28;98939.72;;;8.12;100.00
36062;BME280;22123;52.412;20.970;2023-03-14T00:49:54;98934.75;;;8.09;100.00
36062;BME280;22123;52.412;20.970;2023-03-14T00:52:20;98919.06;;;8.06;100.00
36062;BME280;22123;52.412;20.970;2023-03-14T00:54:45;98937.50;;;8.15;100.00
36062;BME280;22123;52.412;20.970;2023-03-14T00:57:11;98931.78;;;8.04;100.00
36062;BME280;22123;52.412;20.970;2023-03-14T00:59:37;98961.25;;;8.25;100.00
36062;BME280;22123;52.412;20.970;2023-03-14T01:02:03;98919.44;;;8.03;100.00
36062;BME280;22123;52.412;20.970;2023-03-14T01:04:29;98979.50;;;8.36;100.00
36062;BME280;22123;52.412;20.970;2023-03-14T01:06:55;98963.31;;;8.23;100.00
36062;BME280;22123;52.412;20.970;2023-03-14T01:09:21;98918.06;;;7.85;100.00
36062;BME280;22123;52.412;20.970;2023-03-14T01:11:47;98952.75;;;7.93;100.00
36062;BME280;22123;52.412;20.970;2023-03-14T01:14:13;98929.66;;;7.71;100.00
36062;BME280;22123;52.412;20.970;2023-03-14T01:16:39;98986.88;;;8.06;100.00
36062;BME280;22123;52.412;20.970;2023-03-14T01:19:05;98947.66;;;7.77;100.00
36062;BME280;22123;52.412;20.970;2023-03-14T01:21:32;98948.03;;;7.74;100.00
36062;BME280;22123;52.412;20.970;2023-03-14T01:23:59;98970.47;;;7.94;100.00
36062;BME280;22123;52.412;20.970;2023-03-14T01:26:27;98960.16;;;7.91;100.00
36062;BME280;22123;52.412;20.970;2023-03-14T01:28:55;98954.28;;;7.81;100.00
36062;BME280;22123;52.412;20.970;2023-03-14T01:31:21;98925.19;;;7.56;100.00
36062;BME280;22123;52.412;20.970;2023-03-14T01:33:48;98904.16;;;7.53;100.00
36062;BME280;22123;52.412;20.970;2023-03-14T01:36:14;98917.78;;;7.58;100.00
36062;BME280;22123;52.412;20.970;2023-03-14T01:38:41;98900.88;;;7.36;100.00
36062;BME280;22123;52.412;20.970;2023-03-14T01:41:09;98957.84;;;7.66;100.00
36062;BME280;22123;52.412;20.970;2023-03-14T01:43:37;98914.72;;;7.40;100.00
36062;BME280;22123;52.412;20.970;2023-03-14T01:51:22;98930.97;;;7.38;100.00
36062;BME280;22123;52.412;20.970;2023-03-14T01:53:50;98921.03;;;7.32;100.00
36062;BME280;22123;52.412;20.970;2023-03-14T01:56:19;98884.59;;;7.16;100.00
36062;BME280;22123;52.412;20.970;2023-03-14T01:58:47;98911.25;;;7.24;100.00
36062;BME280;22123;52.412;20.970;2023-03-14T02:01:16;98928.22;;;7.31;100.00
36062;BME280;22123;52.412;20.970;2023-03-14T02:03:48;98934.69;;;7.37;100.00
36062;BME280;22123;52.412;20.970;2023-03-14T02:06:17;98902.88;;;7.12;100.00
36062;BME280;22123;52.412;20.970;2023-03-14T02:08:45;98935.88;;;7.35;100.00
36062;BME280;22123;52.412;20.970;2023-03-14T02:11:11;98923.22;;;7.28;100.00
36062;BME280;22123;52.412;20.970;2023-03-14T02:13:37;98872.47;;;6.99;100.00
36062;BME280;22123;52.412;20.970;2023-03-14T02:16:03;98903.16;;;7.18;100.00
36062;BME280;22123;52.412;20.970;2023-03-14T02:18:29;98901.47;;;7.17;100.00
36062;BME280;22123;52.412;20.970;2023-03-14T02:21:05;98907.88;;;7.16;100.00
36062;BME280;22123;52.412;20.970;2023-03-14T02:23:39;98867.59;;;6.87;100.00
36062;BME280;22123;52.412;20.970;2023-03-14T02:26:20;98901.34;;;7.03;100.00
36062;BME280;22123;52.412;20.970;2023-03-14T02:28:48;98860.97;;;6.83;100.00
36062;BME280;22123;52.412;20.970;2023-03-14T02:31:15;98874.16;;;6.85;100.00
36062;BME280;22123;52.412;20.970;2023-03-14T02:33:41;98882.75;;;6.80;100.00
36062;BME280;22123;52.412;20.970;2023-03-14T02:36:10;98899.97;;;6.92;100.00
36062;BME280;22123;52.412;20.970;2023-03-14T02:38:51;98868.59;;;6.86;100.00
36062;BME280;22123;52.412;20.970;2023-03-14T02:41:18;98878.94;;;6.89;100.00
36062;BME280;22123;52.412;20.970;2023-03-14T02:43:44;98849.72;;;6.73;100.00
36062;BME280;22123;52.412;20.970;2023-03-14T02:46:12;98792.97;;;6.41;100.00
36062;BME280;22123;52.412;20.970;2023-03-14T02:48:57;98867.03;;;6.92;100.00
36062;BME280;22123;52.412;20.970;2023-03-14T02:51:26;98850.63;;;6.80;100.00
36062;BME280;22123;52.412;20.970;2023-03-14T02:53:53;98815.00;;;6.58;100.00
36062;BME280;22123;52.412;20.970;2023-03-14T02:56:19;98839.41;;;6.70;100.00
36062;BME280;22123;52.412;20.970;2023-03-14T02:58:45;98836.19;;;6.59;100.00
36062;BME280;22123;52.412;20.970;2023-03-14T03:01:11;98833.56;;;6.44;100.00
36062;BME280;22123;52.412;20.970;2023-03-14T03:03:37;98826.16;;;6.47;100.00
36062;BME280;22123;52.412;20.970;2023-03-14T03:06:03;98865.03;;;6.64;100.00
36062;BME280;22123;52.412;20.970;2023-03-14T03:08:29;98828.91;;;6.38;100.00
36062;BME280;22123;52.412;20.970;2023-03-14T03:10:57;98872.63;;;6.60;100.00
36062;BME280;22123;52.412;20.970;2023-03-14T03:13:23;98864.88;;;6.51;100.00
36062;BME280;22123;52.412;20.970;2023-03-14T03:15:49;98878.06;;;6.52;100.00
36062;BME280;22123;52.412;20.970;2023-03-14T03:18:15;98744.69;;;5.68;100.00
36062;BME280;22123;52.412;20.970;2023-03-14T03:20:41;98816.75;;;6.06;100.00
36062;BME280;22123;52.412;20.970;2023-03-14T03:23:07;98878.06;;;6.52;100.00
36062;BME280;22123;52.412;20.970;2023-03-14T03:25:33;98882.59;;;6.52;100.00
36062;BME280;22123;52.412;20.970;2023-03-14T03:27:59;98817.88;;;6.12;100.00
36062;BME280;22123;52.412;20.970;2023-03-14T03:30:25;98873.72;;;6.36;100.00
36062;BME280;22123;52.412;20.970;2023-03-14T03:32:51;98862.19;;;6.21;100.00
36062;BME280;22123;52.412;20.970;2023-03-14T03:35:17;98804.75;;;5.87;100.00
36062;BME280;22123;52.412;20.970;2023-03-14T03:37:43;98807.50;;;5.79;100.00
36062;BME280;22123;52.412;20.970;2023-03-14T03:40:09;98855.47;;;6.10;100.00
36062;BME280;22123;52.412;20.970;2023-03-14T03:42:35;98833.75;;;5.90;100.00
36062;BME280;22123;52.412;20.970;2023-03-14T03:45:02;98801.09;;;5.65;100.00
36062;BME280;22123;52.412;20.970;2023-03-14T03:47:30;98861.44;;;5.97;100.00
36062;BME280;22123;52.412;20.970;2023-03-14T03:49:56;98840.28;;;5.87;100.00
36062;BME280;22123;52.412;20.970;2023-03-14T03:52:22;98767.00;;;5.37;100.00
36062;BME280;22123;52.412;20.970;2023-03-14T03:54:48;98812.44;;;5.67;100.00
36062;BME280;22123;52.412;20.970;2023-03-14T03:57:14;98852.72;;;5.95;100.00
36062;BME280;22123;52.412;20.970;2023-03-14T03:59:39;98846.22;;;5.98;100.00
36062;BME280;22123;52.412;20.970;2023-03-14T04:02:06;98845.41;;;5.97;100.00
36062;BME280;22123;52.412;20.970;2023-03-14T04:04:32;98779.28;;;5.61;100.00
36062;BME280;22123;52.412;20.970;2023-03-14T04:06:57;98820.28;;;5.83;100.00
36062;BME280;22123;52.412;20.970;2023-03-14T04:09:23;98792.44;;;5.63;100.00
36062;BME280;22123;52.412;20.970;2023-03-14T04:11:49;98834.00;;;5.80;100.00
36062;BME280;22123;52.412;20.970;2023-03-14T04:14:15;98817.25;;;5.71;100.00
36062;BME280;22123;52.412;20.970;2023-03-14T04:16:41;98843.88;;;5.80;100.00
36062;BME280;22123;52.412;20.970;2023-03-14T04:19:07;98819.69;;;5.58;100.00
36062;BME280;22123;52.412;20.970;2023-03-14T04:21:33;98786.50;;;5.37;100.00
36062;BME280;22123;52.412;20.970;2023-03-14T04:23:59;98845.06;;;5.77;100.00
36062;BME280;22123;52.412;20.970;2023-03-14T04:26:25;98804.50;;;5.58;100.00
36062;BME280;22123;52.412;20.970;2023-03-14T04:28:51;98814.38;;;5.73;100.00
36062;BME280;22123;52.412;20.970;2023-03-14T04:31:21;98776.50;;;5.54;100.00
36062;BME280;22123;52.412;20.970;2023-03-14T04:33:47;98805.56;;;5.72;100.00
36062;BME280;22123;52.412;20.970;2023-03-14T04:36:13;98775.97;;;5.59;100.00
36062;BME280;22123;52.412;20.970;2023-03-14T04:38:40;98830.00;;;5.99;100.00
36062;BME280;22123;52.412;20.970;2023-03-14T04:41:06;98838.03;;;5.99;100.00
36062;BME280;22123;52.412;20.970;2023-03-14T04:43:32;98843.00;;;6.02;100.00
36062;BME280;22123;52.412;20.970;2023-03-14T04:45:58;98786.19;;;5.70;100.00
36062;BME280;22123;52.412;20.970;2023-03-14T04:48:26;98792.59;;;5.84;100.00
36062;BME280;22123;52.412;20.970;2023-03-14T04:50:52;98817.19;;;5.95;100.00
36062;BME280;22123;52.412;20.970;2023-03-14T04:53:19;98801.16;;;5.95;100.00
36062;BME280;22123;52.412;20.970;2023-03-14T04:55:49;98787.69;;;5.88;100.00
36062;BME280;22123;52.412;20.970;2023-03-14T04:58:15;98814.34;;;6.11;100.00
36062;BME280;22123;52.412;20.970;2023-03-14T05:00:41;98766.06;;;5.83;100.00
36062;BME280;22123;52.412;20.970;2023-03-14T05:03:07;98769.91;;;5.95;100.00
36062;BME280;22123;52.412;20.970;2023-03-14T05:05:32;98782.78;;;6.15;100.00
36062;BME280;22123;52.412;20.970;2023-03-14T05:07:58;98791.97;;;6.27;100.00
36062;BME280;22123;52.412;20.970;2023-03-14T05:10:24;98779.44;;;6.28;100.00
36062;BME280;22123;52.412;20.970;2023-03-14T05:12:50;98794.34;;;6.37;100.00
36062;BME280;22123;52.412;20.970;2023-03-14T05:15:16;98803.09;;;6.46;100.00
36062;BME280;22123;52.412;20.970;2023-03-14T05:17:42;98731.19;;;6.14;100.00
36062;BME280;22123;52.412;20.970;2023-03-14T05:20:08;98791.75;;;6.58;100.00
36062;BME280;22123;52.412;20.970;2023-03-14T05:22:34;98741.28;;;6.34;100.00
36062;BME280;22123;52.412;20.970;2023-03-14T05:25:00;98751.13;;;6.48;100.00
36062;BME280;22123;52.412;20.970;2023-03-14T05:27:26;98736.28;;;6.46;100.00
36062;BME280;22123;52.412;20.970;2023-03-14T05:29:52;98761.97;;;6.61;100.00
36062;BME280;22123;52.412;20.970;2023-03-14T05:32:18;98757.91;;;6.66;100.00
36062;BME280;22123;52.412;20.970;2023-03-14T05:34:44;98743.44;;;6.60;100.00
36062;BME280;22123;52.412;20.970;2023-03-14T05:37:10;98706.56;;;6.55;100.00
36062;BME280;22123;52.412;20.970;2023-03-14T05:39:36;98676.47;;;6.47;100.00
36062;BME280;22123;52.412;20.970;2023-03-14T05:42:02;98735.50;;;6.88;100.00
36062;BME280;22123;52.412;20.970;2023-03-14T05:44:27;98733.06;;;6.93;100.00
36062;BME280;22123;52.412;20.970;2023-03-14T05:46:53;98687.59;;;6.72;100.00
36062;BME280;22123;52.412;20.970;2023-03-14T05:49:19;98685.38;;;6.75;100.00
36062;BME280;22123;52.412;20.970;2023-03-14T05:51:45;98691.34;;;6.77;100.00
36062;BME280;22123;52.412;20.970;2023-03-14T05:54:11;98693.47;;;6.82;100.00
36062;BME280;22123;52.412;20.970;2023-03-14T05:56:37;98699.97;;;6.94;100.00
36062;BME280;22123;52.412;20.970;2023-03-14T05:59:03;98694.91;;;7.06;100.00
36062;BME280;22123;52.412;20.970;2023-03-14T06:01:29;98722.31;;;7.30;100.00
36062;BME280;22123;52.412;20.970;2023-03-14T06:03:55;98657.78;;;6.96;100.00
36062;BME280;22123;52.412;20.970;2023-03-14T06:06:21;98621.25;;;6.82;100.00
36062;BME280;22123;52.412;20.970;2023-03-14T06:08:47;98702.47;;;7.53;100.00
36062;BME280;22123;52.412;20.970;2023-03-14T06:11:13;98687.47;;;7.58;100.00
36062;BME280;22123;52.412;20.970;2023-03-14T06:13:39;98662.72;;;7.49;100.00
36062;BME280;22123;52.412;20.970;2023-03-14T06:16:05;98655.28;;;7.45;100.00
36062;BME280;22123;52.412;20.970;2023-03-14T06:18:31;98666.44;;;7.55;100.00
36062;BME280;22123;52.412;20.970;2023-03-14T06:20:57;98646.22;;;7.46;100.00
36062;BME280;22123;52.412;20.970;2023-03-14T06:23:23;98677.63;;;7.65;100.00
36062;BME280;22123;52.412;20.970;2023-03-14T06:25:49;98699.13;;;7.72;100.00
36062;BME280;22123;52.412;20.970;2023-03-14T06:28:15;98657.88;;;7.38;100.00
36062;BME280;22123;52.412;20.970;2023-03-14T06:30:41;98702.72;;;7.58;100.00
36062;BME280;22123;52.412;20.970;2023-03-14T06:33:07;98727.34;;;7.75;100.00
36062;BME280;22123;52.412;20.970;2023-03-14T06:35:33;98660.09;;;7.56;100.00
36062;BME280;22123;52.412;20.970;2023-03-14T06:37:59;98670.50;;;7.79;100.00
36062;BME280;22123;52.412;20.970;2023-03-14T06:40:25;98646.34;;;7.73;100.00
36062;BME280;22123;52.412;20.970;2023-03-14T06:42:51;98695.28;;;8.30;100.00
36062;BME280;22123;52.412;20.970;2023-03-14T06:45:17;98717.66;;;8.64;100.00
36062;BME280;22123;52.412;20.970;2023-03-14T06:47:43;98695.41;;;8.83;100.00
36062;BME280;22123;52.412;20.970;2023-03-14T06:50:10;98660.75;;;8.95;100.00
36062;BME280;22123;52.412;20.970;2023-03-14T06:52:37;98699.38;;;9.34;100.00
36062;BME280;22123;52.412;20.970;2023-03-14T06:55:03;98673.75;;;9.25;100.00
36062;BME280;22123;52.412;20.970;2023-03-14T06:57:29;98716.09;;;9.63;100.00
36062;BME280;22123;52.412;20.970;2023-03-14T06:59:55;98686.34;;;9.58;100.00
36062;BME280;22123;52.412;20.970;2023-03-14T07:02:22;98643.59;;;9.43;100.00
36062;BME280;22123;52.412;20.970;2023-03-14T07:04:48;98691.25;;;9.81;100.00
36062;BME280;22123;52.412;20.970;2023-03-14T07:07:14;98716.19;;;10.08;100.00
36062;BME280;22123;52.412;20.970;2023-03-14T07:09:40;98727.31;;;10.19;100.00
36062;BME280;22123;52.412;20.970;2023-03-14T07:12:06;98734.78;;;10.17;100.00
36062;BME280;22123;52.412;20.970;2023-03-14T07:14:31;98740.13;;;10.23;100.00
36062;BME280;22123;52.412;20.970;2023-03-14T07:16:57;98722.81;;;10.13;100.00
36062;BME280;22123;52.412;20.970;2023-03-14T07:19:23;98694.94;;;9.87;100.00
36062;BME280;22123;52.412;20.970;2023-03-14T07:21:49;98740.59;;;10.07;100.00
36062;BME280;22123;52.412;20.970;2023-03-14T07:24:15;98702.38;;;9.91;100.00
36062;BME280;22123;52.412;20.970;2023-03-14T07:26:41;98736.63;;;10.16;100.00
36062;BME280;22123;52.412;20.970;2023-03-14T07:29:07;98711.03;;;10.07;100.00
36062;BME280;22123;52.412;20.970;2023-03-14T07:31:33;98668.66;;;9.96;100.00
36062;BME280;22123;52.412;20.970;2023-03-14T07:33:58;98719.19;;;10.32;100.00
36062;BME280;22123;52.412;20.970;2023-03-14T07:36:24;98715.28;;;10.41;100.00
36062;BME280;22123;52.412;20.970;2023-03-14T07:38:50;98683.22;;;10.26;100.00
36062;BME280;22123;52.412;20.970;2023-03-14T07:41:16;98685.28;;;10.31;100.00
36062;BME280;22123;52.412;20.970;2023-03-14T07:43:42;98679.44;;;10.48;100.00
36062;BME280;22123;52.412;20.970;2023-03-14T07:46:08;98706.41;;;10.73;100.00
36062;BME280;22123;52.412;20.970;2023-03-14T07:48:34;98671.03;;;10.69;100.00
36062;BME280;22123;52.412;20.970;2023-03-14T07:51:00;98688.34;;;10.80;100.00
36062;BME280;22123;52.412;20.970;2023-03-14T07:53:26;98696.16;;;10.88;100.00
36062;BME280;22123;52.412;20.970;2023-03-14T07:55:52;98671.19;;;10.74;100.00
36062;BME280;22123;52.412;20.970;2023-03-14T07:58:19;98702.09;;;10.97;100.00
36062;BME280;22123;52.412;20.970;2023-03-14T08:00:45;98678.31;;;10.94;100.00
36062;BME280;22123;52.412;20.970;2023-03-14T08:03:11;98669.09;;;11.08;100.00
36062;BME280;22123;52.412;20.970;2023-03-14T08:05:37;98664.00;;;11.25;100.00
36062;BME280;22123;52.412;20.970;2023-03-14T08:08:04;98656.47;;;11.53;100.00
36062;BME280;22123;52.412;20.970;2023-03-14T08:10:31;98709.09;;;11.99;100.00
36062;BME280;22123;52.412;20.970;2023-03-14T08:12:58;98692.91;;;12.17;100.00
36062;BME280;22123;52.412;20.970;2023-03-14T08:15:25;98685.22;;;12.21;100.00
36062;BME280;22123;52.412;20.970;2023-03-14T08:17:51;98712.47;;;12.50;100.00
36062;BME280;22123;52.412;20.970;2023-03-14T08:20:18;98678.72;;;12.41;100.00
36062;BME280;22123;52.412;20.970;2023-03-14T08:22:44;98692.25;;;12.52;100.00
36062;BME280;22123;52.412;20.970;2023-03-14T08:25:10;98666.28;;;12.40;100.00
36062;BME280;22123;52.412;20.970;2023-03-14T08:27:36;98711.31;;;12.58;100.00
36062;BME280;22123;52.412;20.970;2023-03-14T08:30:03;98680.47;;;12.35;100.00
36062;BME280;22123;52.412;20.970;2023-03-14T08:32:28;98697.25;;;12.37;100.00
36062;BME280;22123;52.412;20.970;2023-03-14T08:34:54;98690.22;;;12.36;100.00
36062;BME280;22123;52.412;20.970;2023-03-14T08:37:20;98706.13;;;12.56;100.00
36062;BME280;22123;52.412;20.970;2023-03-14T08:39:46;98672.06;;;12.43;100.00
36062;BME280;22123;52.412;20.970;2023-03-14T08:42:12;98678.78;;;12.52;100.00
36062;BME280;22123;52.412;20.970;2023-03-14T08:44:38;98701.81;;;12.67;100.00
36062;BME280;22123;52.412;20.970;2023-03-14T08:47:04;98705.16;;;12.69;100.00
36062;BME280;22123;52.412;20.970;2023-03-14T08:49:30;98674.38;;;12.70;100.00
36062;BME280;22123;52.412;20.970;2023-03-14T08:51:56;98686.69;;;13.08;100.00
36062;BME280;22123;52.412;20.970;2023-03-14T08:54:22;98677.78;;;13.19;100.00
36062;BME280;22123;52.412;20.970;2023-03-14T08:56:47;98650.53;;;13.21;100.00
36062;BME280;22123;52.412;20.970;2023-03-14T08:59:13;98687.69;;;13.37;100.00
36062;BME280;22123;52.412;20.970;2023-03-14T09:01:39;98665.34;;;13.18;100.00
36062;BME280;22123;52.412;20.970;2023-03-14T09:04:05;98704.88;;;13.43;100.00
36062;BME280;22123;52.412;20.970;2023-03-14T09:06:31;98671.06;;;13.10;100.00
36062;BME280;22123;52.412;20.970;2023-03-14T09:08:57;98720.56;;;13.22;100.00
36062;BME280;22123;52.412;20.970;2023-03-14T09:11:23;98710.72;;;13.28;100.00
36062;BME280;22123;52.412;20.970;2023-03-14T09:13:49;98670.06;;;13.35;100.00
36062;BME280;22123;52.412;20.970;2023-03-14T09:16:15;98662.22;;;13.69;100.00
36062;BME280;22123;52.412;20.970;2023-03-14T09:18:40;98661.53;;;14.14;100.00
36062;BME280;22123;52.412;20.970;2023-03-14T09:21:07;98693.59;;;14.75;100.00
36062;BME280;22123;52.412;20.970;2023-03-14T09:23:33;98673.41;;;14.83;100.00
36062;BME280;22123;52.412;20.970;2023-03-14T09:25:59;98664.22;;;14.84;100.00
36062;BME280;22123;52.412;20.970;2023-03-14T09:28:27;98635.22;;;14.67;100.00
36062;BME280;22123;52.412;20.970;2023-03-14T09:30:53;98668.47;;;14.80;100.00
36062;BME280;22123;52.412;20.970;2023-03-14T09:33:19;98649.25;;;14.52;100.00
36062;BME280;22123;52.412;20.970;2023-03-14T09:35:45;98650.84;;;14.36;100.00
36062;BME280;22123;52.412;20.970;2023-03-14T09:38:11;98682.91;;;14.27;100.00
36062;BME280;22123;52.412;20.970;2023-03-14T09:40:37;98634.41;;;13.85;100.00
36062;BME280;22123;52.412;20.970;2023-03-14T09:43:04;98675.47;;;13.82;100.00
36062;BME280;22123;52.412;20.970;2023-03-14T09:45:39;98615.19;;;13.22;100.00
36062;BME280;22123;52.412;20.970;2023-03-14T09:48:08;98658.91;;;13.43;100.00
36062;BME280;22123;52.412;20.970;2023-03-14T09:50:48;98619.88;;;13.03;100.00
36062;BME280;22123;52.412;20.970;2023-03-14T09:53:18;98648.53;;;13.16;100.00
36062;BME280;22123;52.412;20.970;2023-03-14T09:55:46;98659.34;;;13.28;100.00
36062;BME280;22123;52.412;20.970;2023-03-14T09:58:16;98601.88;;;12.85;100.00
36062;BME280;22123;52.412;20.970;2023-03-14T10:00:43;98602.72;;;12.98;100.00
36062;BME280;22123;52.412;20.970;2023-03-14T10:05:39;98653.75;;;13.53;100.00
36062;BME280;22123;52.412;20.970;2023-03-14T10:08:06;98642.56;;;13.73;100.00
36062;BME280;22123;52.412;20.970;2023-03-14T10:10:32;98640.94;;;14.13;100.00
36062;BME280;22123;52.412;20.970;2023-03-14T10:15:30;98629.09;;;15.23;100.00
36062;BME280;22123;52.412;20.970;2023-03-14T10:17:59;98612.47;;;15.19;100.00
36062;BME280;22123;52.412;20.970;2023-03-14T10:22:54;98602.88;;;15.11;100.00
36062;BME280;22123;52.412;20.970;2023-03-14T10:25:29;98620.59;;;15.75;100.00
36062;BME280;22123;52.412;20.970;2023-03-14T10:27:55;98621.41;;;16.15;100.00
36062;BME280;22123;52.412;20.970;2023-03-14T10:30:45;98623.81;;;15.89;100.00
36062;BME280;22123;52.412;20.970;2023-03-14T10:33:23;98621.09;;;15.50;100.00
36062;BME280;22123;52.412;20.970;2023-03-14T10:35:55;98629.28;;;15.55;100.00
36062;BME280;22123;52.412;20.970;2023-03-14T10:38:29;98612.47;;;15.75;100.00
36062;BME280;22123;52.412;20.970;2023-03-14T10:40:57;98628.16;;;15.90;100.00
36062;BME280;22123;52.412;20.970;2023-03-14T10:43:25;98625.59;;;16.01;100.00
36062;BME280;22123;52.412;20.970;2023-03-14T10:46:16;98612.94;;;16.11;100.00
36062;BME280;22123;52.412;20.970;2023-03-14T10:48:41;98588.34;;;16.78;100.00
36062;BME280;22123;52.412;20.970;2023-03-14T10:51:24;98603.19;;;17.83;100.00
36062;BME280;22123;52.412;20.970;2023-03-14T10:53:59;98591.47;;;18.66;100.00
36062;BME280;22123;52.412;20.970;2023-03-14T10:56:26;98596.38;;;19.36;100.00
36062;BME280;22123;52.412;20.970;2023-03-14T10:58:55;98575.34;;;20.23;100.00
36062;BME280;22123;52.412;20.970;2023-03-14T11:11:54;98597.28;;;17.00;100.00
36062;BME280;22123;52.412;20.970;2023-03-14T11:14:34;98581.88;;;16.51;100.00
36062;BME280;22123;52.412;20.970;2023-03-14T11:17:15;98596.56;;;16.28;100.00
36062;BME280;22123;52.412;20.970;2023-03-14T11:19:42;98597.78;;;16.15;100.00
36062;BME280;22123;52.412;20.970;2023-03-14T11:22:20;98600.81;;;15.97;100.00
36062;BME280;22123;52.412;20.970;2023-03-14T11:27:59;98614.09;;;15.54;100.00
36062;BME280;22123;52.412;20.970;2023-03-14T11:30:39;98631.47;;;15.19;100.00
36062;BME280;22123;52.412;20.970;2023-03-14T11:33:14;98636.31;;;14.83;100.00
36062;BME280;22123;52.412;20.970;2023-03-14T11:36:20;98567.44;;;14.04;100.00
36062;BME280;22123;52.412;20.970;2023-03-14T11:38:52;98564.22;;;13.79;100.00
36062;BME280;22123;52.412;20.970;2023-03-14T11:41:39;98626.22;;;14.09;100.00
36062;BME280;22123;52.412;20.970;2023-03-14T11:44:30;98533.28;;;13.46;100.00
36062;BME280;22123;52.412;20.970;2023-03-14T11:47:12;98599.41;;;14.07;100.00
36062;BME280;22123;52.412;20.970;2023-03-14T11:50:18;98608.25;;;14.60;100.00
36062;BME280;22123;52.412;20.970;2023-03-14T11:52:50;98592.47;;;15.03;100.00
36062;BME280;22123;52.412;20.970;2023-03-14T11:57:50;98571.13;;;14.90;100.00
36062;BME280;22123;52.412;20.970;2023-03-14T12:00:19;98600.59;;;14.86;100.00
36062;BME280;22123;52.412;20.970;2023-03-14T12:05:25;98635.56;;;14.71;100.00
36062;BME280;22123;52.412;20.970;2023-03-14T12:08:19;98584.78;;;14.20;100.00
36062;BME280;22123;52.412;20.970;2023-03-14T12:11:01;98625.31;;;14.44;100.00
36062;BME280;22123;52.412;20.970;2023-03-14T12:13:37;98627.59;;;14.52;100.00
36062;BME280;22123;52.412;20.970;2023-03-14T12:16:52;98630.53;;;14.63;100.00
36062;BME280;22123;52.412;20.970;2023-03-14T12:18:52;98616.34;;;14.72;100.00
36062;BME280;22123;52.412;20.970;2023-03-14T12:21:19;98537.72;;;14.21;100.00
36062;BME280;22123;52.412;20.970;2023-03-14T12:23:50;98629.34;;;14.58;100.00
36062;BME280;22123;52.412;20.970;2023-03-14T12:26:26;98622.06;;;14.30;100.00
36062;BME280;22123;52.412;20.970;2023-03-14T12:29:13;98633.47;;;14.03;100.00
36062;BME280;22123;52.412;20.970;2023-03-14T12:31:47;98627.28;;;13.79;100.00
36062;BME280;22123;52.412;20.970;2023-03-14T12:44:39;98575.16;;;12.53;100.00
36062;BME280;22123;52.412;20.970;2023-03-14T12:49:48;98640.34;;;12.69;100.00
36062;BME280;22123;52.412;20.970;2023-03-14T12:52:35;98661.00;;;12.63;100.00
36062;BME280;22123;52.412;20.970;2023-03-14T12:55:14;98661.34;;;12.37;100.00
36062;BME280;22123;52.412;20.970;2023-03-14T12:57:54;98684.53;;;12.07;100.00
36062;BME280;22123;52.412;20.970;2023-03-14T13:00:30;98688.16;;;11.76;100.00
36062;BME280;22123;52.412;20.970;2023-03-14T13:03:15;98650.09;;;11.28;100.00
36062;BME280;22123;52.412;20.970;2023-03-14T13:05:54;98644.97;;;10.95;100.00
36062;BME280;22123;52.412;20.970;2023-03-14T13:08:37;98679.09;;;11.01;100.00
36062;BME280;22123;52.412;20.970;2023-03-14T13:11:07;98682.47;;;10.90;100.00
36062;BME280;22123;52.412;20.970;2023-03-14T13:13:36;98686.28;;;10.82;100.00
36062;BME280;22123;52.412;20.970;2023-03-14T13:16:09;98637.25;;;10.41;100.00
36062;BME280;22123;52.412;20.970;2023-03-14T13:18:46;98623.25;;;10.19;100.00
36062;BME280;22123;52.412;20.970;2023-03-14T13:21:16;98674.50;;;10.44;100.00
36062;BME280;22123;52.412;20.970;2023-03-14T13:26:55;98685.53;;;10.16;100.00
36062;BME280;22123;52.412;20.970;2023-03-14T13:31:56;98631.75;;;9.71;100.00
36062;BME280;22123;52.412;20.970;2023-03-14T13:34:31;98682.09;;;9.96;100.00
36062;BME280;22123;52.412;20.970;2023-03-14T13:36:57;98654.47;;;9.68;100.00
36062;BME280;22123;52.412;20.970;2023-03-14T13:39:25;98621.47;;;9.48;100.00
36062;BME280;22123;52.412;20.970;2023-03-14T13:41:52;98688.34;;;9.83;100.00